Time;durP1;ratioP1;P1;durP2;ratioP2;P2;SDS_P1;SDS_P2;PMS_P1;PMS_P2;Temp;Humidity;BMP_temperature;BMP_pressure;BME280_temperature;BME280_humidity;BME280_pressure;Samples;Min_cycle;Max_cycle;Signal;HPM_P1;HPM_P2
2021/12/05 00:24:51;;;;;;;2.92;2.53;;;;;;;3.34;100.00;96546.84;10522282;28;20105;-57
2021/12/05 00:30:01;;;;;;;2.88;2.58;;;;;;;3.36;100.00;96556.31;10526256;28;20055;-54
2021/12/05 00:46:26;;;;;;;3.67;2.60;;;;;;;3.37;100.00;96579.28;10524851;28;20044;-57
2021/12/05 01:02:42;;;;;;;3.53;2.80;;;;;;;3.41;100.00;96632.19;10525525;28;20052;-56
2021/12/05 01:13:28;;;;;;;3.30;2.60;;;;;;;3.44;100.00;96643.34;10522596;28;20067;-57
2021/12/05 01:18:32;;;;;;;4.82;2.08;;;;;;;3.43;100.00;96654.16;10523093;28;20044;-56
2021/12/05 01:23:45;;;;;;;6.70;2.30;;;;;;;3.49;100.00;96666.81;10525719;28;20062;-57
2021/12/05 01:29:23;;;;;;;5.60;2.15;;;;;;;3.52;100.00;96671.84;10525692;28;20039;-54
2021/12/05 01:34:52;;;;;;;6.82;2.40;;;;;;;3.48;100.00;96675.81;10524600;28;20047;-56
2021/12/05 01:40:19;;;;;;;7.38;1.80;;;;;;;3.51;100.00;96675.50;10524697;28;20071;-54
2021/12/05 01:56:54;;;;;;;8.50;1.80;;;;;;;3.50;100.00;96690.66;10504376;28;20040;-55
2021/12/05 02:34:36;;;;;;;9.18;2.17;;;;;;;3.31;100.00;96746.75;10531895;28;20067;-57
2021/12/05 02:39:53;;;;;;;8.93;2.10;;;;;;;3.30;100.00;96759.25;10531515;28;20040;-57
2021/12/05 02:44:56;;;;;;;8.88;2.30;;;;;;;3.24;100.00;96765.16;10530886;28;20512;-56
2021/12/05 02:50:05;;;;;;;9.02;2.40;;;;;;;3.22;100.00;96767.19;10531126;28;20394;-56
2021/12/05 02:55:15;;;;;;;10.48;2.33;;;;;;;3.19;100.00;96770.16;10531012;28;20071;-57
2021/12/05 03:00:34;;;;;;;9.20;2.80;;;;;;;3.14;100.00;96772.44;10531121;28;20144;-58
2021/12/05 03:05:43;;;;;;;12.30;2.30;;;;;;;3.02;100.00;96780.66;10529008;28;20074;-54
2021/12/05 03:10:49;;;;;;;7.07;2.20;;;;;;;3.00;100.00;96785.28;10529297;28;20442;-57
2021/12/05 03:15:56;;;;;;;15.13;2.55;;;;;;;2.87;100.00;96790.19;10532645;28;20051;-54
2021/12/05 03:21:01;;;;;;;9.43;2.20;;;;;;;2.82;100.00;96792.47;10529484;28;20035;-55
2021/12/05 03:26:08;;;;;;;8.77;2.30;;;;;;;2.80;100.00;96794.44;10529380;28;20044;-57
2021/12/05 03:31:13;;;;;;;10.98;2.22;;;;;;;2.74;100.00;96795.88;10528010;28;20043;-57
2021/12/05 03:36:17;;;;;;;11.63;2.60;;;;;;;2.67;100.00;96790.31;10532026;28;20043;-54
2021/12/05 03:41:22;;;;;;;9.52;2.55;;;;;;;2.68;100.00;96791.19;10526222;28;20087;-54
2021/12/05 03:46:28;;;;;;;9.05;2.47;;;;;;;2.66;100.00;96803.78;10527145;28;20098;-56
2021/12/05 03:51:34;;;;;;;11.57;3.13;;;;;;;2.62;100.00;96806.75;10528351;28;20048;-56
2021/12/05 03:56:39;;;;;;;9.48;2.60;;;;;;;2.56;100.00;96809.16;10529423;28;20052;-57
2021/12/05 04:01:47;;;;;;;6.32;2.00;;;;;;;2.52;100.00;96813.94;10529627;28;20043;-55
2021/12/05 04:06:51;;;;;;;6.78;2.28;;;;;;;2.49;100.00;96816.06;10527491;28;20205;-55
2021/12/05 04:12:00;;;;;;;7.90;2.22;;;;;;;2.47;100.00;96822.38;10524991;28;20040;-54
2021/12/05 04:17:11;;;;;;;6.20;2.10;;;;;;;2.43;100.00;96805.03;10528446;28;20036;-54
2021/12/05 04:22:17;;;;;;;11.65;2.60;;;;;;;2.41;100.00;96801.69;10527152;28;20171;-54
2021/12/05 04:27:22;;;;;;;9.45;2.38;;;;;;;2.37;100.00;96805.66;10529288;28;20047;-57
2021/12/05 04:32:26;;;;;;;8.75;2.50;;;;;;;2.34;100.00;96811.25;10524105;28;20043;-54
2021/12/05 04:37:30;;;;;;;11.07;3.00;;;;;;;2.25;100.00;96813.00;10526140;28;20036;-53
2021/12/05 04:42:35;;;;;;;9.65;2.75;;;;;;;2.21;100.00;96808.97;10524538;28;20044;-51
2021/12/05 04:47:40;;;;;;;7.07;2.88;;;;;;;2.18;100.00;96819.03;10527236;28;20042;-52
2021/12/05 04:52:44;;;;;;;7.53;3.30;;;;;;;2.13;100.00;96814.16;10525254;28;20121;-56
2021/12/05 04:57:51;;;;;;;7.53;3.40;;;;;;;2.11;100.00;96814.34;10526265;28;20482;-55
2021/12/05 05:02:56;;;;;;;11.15;3.20;;;;;;;2.05;100.00;96806.97;10526155;28;20055;-56
2021/12/05 05:08:00;;;;;;;9.80;3.60;;;;;;;2.01;100.00;96816.19;10527929;28;20097;-56
2021/12/05 05:13:05;;;;;;;9.65;3.90;;;;;;;1.92;100.00;96825.88;10527251;28;20531;-57
2021/12/05 05:18:10;;;;;;;11.85;3.75;;;;;;;1.82;100.00;96827.75;10523525;28;20123;-54
2021/12/05 05:28:55;;;;;;;17.85;4.18;;;;;;;1.42;100.00;96850.91;10526978;28;20043;-56
2021/12/05 05:44:58;;;;;;;11.95;3.47;;;;;;;1.30;100.00;96874.09;10520383;28;20138;-58
2021/12/05 05:50:01;;;;;;;10.75;3.47;;;;;;;1.26;100.00;96883.31;10521280;28;20055;-58
2021/12/05 05:55:06;;;;;;;8.00;3.30;;;;;;;1.24;100.00;96887.94;10525223;28;20499;-57
2021/12/05 06:00:20;;;;;;;10.82;3.30;;;;;;;1.22;100.00;96911.09;10525111;28;20411;-58
2021/12/05 06:05:24;;;;;;;8.70;3.00;;;;;;;1.17;100.00;96914.19;10533391;28;20381;-57
2021/12/05 06:10:31;;;;;;;13.60;3.30;;;;;;;1.13;100.00;96917.25;10535016;28;20058;-59
2021/12/05 06:15:35;;;;;;;9.20;3.33;;;;;;;1.08;100.00;96923.78;10534958;28;20042;-59
2021/12/05 06:20:41;;;;;;;7.40;3.33;;;;;;;1.07;100.00;96930.06;10530452;28;20146;-58
2021/12/05 06:25:49;;;;;;;7.70;3.20;;;;;;;1.03;100.00;96934.00;10533789;28;20047;-54
2021/12/05 06:31:00;;;;;;;15.02;3.45;;;;;;;1.00;100.00;96944.88;10532337;28;20052;-57
2021/12/05 06:41:35;;;;;;;;;;;;;;;0.91;100.00;96938.56;10525417;22;20059;-85
2021/12/05 06:46:40;;;;;;;9.90;3.63;;;;;;;0.90;100.00;96934.25;10507214;28;19928;-83
2021/12/05 06:51:43;;;;;;;10.82;3.13;;;;;;;0.87;100.00;96945.16;10523807;28;20057;-84
2021/12/05 06:56:46;;;;;;;7.82;3.33;;;;;;;0.82;100.00;96944.72;10506189;28;20052;-85
2021/12/05 07:01:51;;;;;;;10.55;3.22;;;;;;;0.77;100.00;96961.03;10501609;28;20053;-84
2021/12/05 07:19:23;;;;;;;8.50;3.42;;;;;;;0.58;100.00;96985.66;10489126;28;20048;-86
2021/12/05 07:24:42;;;;;;;7.72;3.78;;;;;;;0.55;100.00;96991.22;10501277;28;20128;-84
2021/12/05 07:42:16;;;;;;;9.48;4.00;;;;;;;0.42;100.00;97003.84;10551250;28;20068;-86
2021/12/05 07:47:22;;;;;;;8.88;4.10;;;;;;;0.39;100.00;97009.44;10539820;28;20055;-87
2021/12/05 07:52:28;;;;;;;9.82;4.00;;;;;;;0.36;100.00;97009.69;10513867;28;20063;-85
2021/12/05 07:57:41;;;;;;;13.50;4.45;;;;;;;0.34;100.00;97008.97;10494532;28;20065;-86
2021/12/05 08:18:48;;;;;;;10.68;4.10;;;;;;;0.50;100.00;97024.38;10502820;28;20437;-83
2021/12/05 08:23:52;;;;;;;8.20;4.28;;;;;;;0.51;100.00;97026.06;10516190;28;20044;-84
2021/12/05 08:29:08;;;;;;;11.85;3.97;;;;;;;0.56;100.00;97037.13;10508977;28;20045;-84
2021/12/05 08:34:48;;;;;;;8.82;4.20;;;;;;;0.65;100.00;97048.75;10491959;28;20049;-83
2021/12/05 09:29:15;;;;;;;8.13;3.13;;;;;;;1.88;100.00;97083.91;10576637;27;20613;-65
2021/12/05 10:06:58;;;;;;;;;;;;;;;2.64;100.00;97104.38;10534885;28;20084;-63
2021/12/05 10:12:20;;;;;;;8.07;1.95;;;;;;;2.84;100.00;97099.00;10523701;28;20007;-62
2021/12/05 10:17:48;;;;;;;8.32;2.50;;;;;;;3.01;100.00;97095.56;10535065;28;20040;-66
2021/12/05 10:33:43;;;;;;;8.25;2.33;;;;;;;3.34;100.00;97089.81;10516676;28;20411;-61
2021/12/05 10:38:52;;;;;;;8.45;2.13;;;;;;;3.43;100.00;97088.91;10494017;27;20154;-62
2021/12/05 10:43:58;;;;;;;9.75;1.85;;;;;;;3.53;100.00;97079.03;10487945;28;20496;-65
2021/12/05 10:49:05;;;;;;;10.88;1.95;;;;;;;3.65;100.00;97077.00;10484881;28;20068;-64
2021/12/05 10:54:09;;;;;;;7.10;2.00;;;;;;;3.65;100.00;97087.66;10488168;28;20123;-65
2021/12/05 10:59:17;;;;;;;7.85;1.73;;;;;;;3.69;100.00;97091.72;10490185;28;20079;-64
2021/12/05 11:04:24;;;;;;;9.77;1.85;;;;;;;3.72;100.00;97087.06;10486769;28;20051;-65
2021/12/05 11:09:31;;;;;;;15.32;2.33;;;;;;;3.77;100.00;97092.78;10485707;28;20153;-66
2021/12/05 11:14:36;;;;;;;8.02;1.70;;;;;;;3.88;100.00;97084.56;10485816;28;20036;-65
2021/12/05 11:19:43;;;;;;;10.43;1.80;;;;;;;3.98;100.00;97098.63;10487379;28;20040;-64
2021/12/05 11:24:50;;;;;;;9.18;1.80;;;;;;;4.06;100.00;97105.06;10490386;28;20131;-65
2021/12/05 11:30:10;;;;;;;8.30;2.08;;;;;;;4.11;100.00;97110.75;10491228;28;20060;-63
2021/12/05 11:35:19;;;;;;;11.10;2.28;;;;;;;4.14;100.00;97099.78;10485869;28;20105;-64
2021/12/05 11:40:26;;;;;;;12.77;2.72;;;;;;;4.18;100.00;97106.47;10490302;28;20128;-65
2021/12/05 11:45:32;;;;;;;6.75;1.80;;;;;;;4.20;100.00;97101.00;10491009;28;20033;-62
2021/12/05 11:50:38;;;;;;;7.13;1.65;;;;;;;4.25;100.00;97094.22;10488489;28;20037;-62
2021/12/05 11:55:42;;;;;;;10.15;2.25;;;;;;;4.29;100.00;97100.91;10486098;28;20064;-64
2021/12/05 12:07:20;;;;;;;8.30;2.13;;;;;;;4.35;100.00;97098.63;10483506;27;20131;-64
2021/12/05 12:12:24;;;;;;;4.10;1.70;;;;;;;4.37;100.00;97102.78;10484066;28;20412;-61
2021/12/05 12:17:28;;;;;;;6.55;1.85;;;;;;;4.41;100.00;97106.84;10482196;28;20046;-63
2021/12/05 12:22:33;;;;;;;5.07;1.70;;;;;;;4.44;100.00;97108.34;10482122;28;20037;-61
2021/12/05 12:27:38;;;;;;;9.18;1.85;;;;;;;4.42;100.00;97113.00;10484126;28;20055;-64
2021/12/05 12:32:45;;;;;;;4.97;1.67;;;;;;;4.42;100.00;97110.31;10480815;28;20043;-64
2021/12/05 12:38:00;;;;;;;6.25;1.60;;;;;;;4.40;100.00;97115.00;10484122;28;20123;-63
2021/12/05 12:43:11;;;;;;;6.35;1.90;;;;;;;4.37;100.00;97116.13;10483241;28;20053;-63
2021/12/05 12:48:18;;;;;;;7.85;1.92;;;;;;;4.28;100.00;97114.38;10484120;28;20041;-62
2021/12/05 12:53:26;;;;;;;7.45;1.70;;;;;;;4.21;100.00;97114.16;10484359;28;20094;-61
2021/12/05 12:58:42;;;;;;;12.13;2.20;;;;;;;4.16;100.00;97116.47;10486146;28;20049;-65
2021/12/05 13:15:06;;;;;;;9.65;3.67;;;;;;;4.05;100.00;97135.34;10483845;28;20090;-63
2021/12/05 13:20:14;;;;;;;10.95;4.47;;;;;;;4.03;100.00;97140.00;10478918;28;20045;-64
2021/12/05 13:25:19;;;;;;;8.68;3.50;;;;;;;3.98;100.00;97135.94;10484399;28;20415;-64
2021/12/05 13:30:31;;;;;;;8.60;2.47;;;;;;;3.91;100.00;97142.88;10484757;28;20049;-64
2021/12/05 13:35:36;;;;;;;9.27;2.22;;;;;;;3.89;100.00;97142.19;10483713;28;20140;-65
2021/12/05 13:40:42;;;;;;;7.18;2.22;;;;;;;3.86;100.00;97153.13;10482697;28;20075;-61
2021/12/05 13:45:45;;;;;;;10.70;2.42;;;;;;;3.80;100.00;97167.06;10485485;28;20047;-62
2021/12/05 13:50:58;;;;;;;8.13;2.20;;;;;;;3.73;100.00;97160.66;10484016;28;20136;-61
2021/12/05 13:56:09;;;;;;;7.22;2.20;;;;;;;3.66;100.00;97165.72;10483842;28;20058;-63
2021/12/05 14:01:16;;;;;;;10.57;2.57;;;;;;;3.55;100.00;97166.78;10483274;28;20046;-64
2021/12/05 14:06:42;;;;;;;7.10;2.00;;;;;;;3.48;100.00;97171.00;10479642;28;20591;-61
2021/12/05 14:11:58;;;;;;;7.13;1.90;;;;;;;3.44;100.00;97174.97;10484453;28;20458;-63
2021/12/05 14:17:05;;;;;;;8.57;1.98;;;;;;;3.41;100.00;97186.72;10490977;28;20036;-62
2021/12/05 14:22:13;;;;;;;7.60;2.50;;;;;;;3.36;100.00;97200.47;10486739;28;20457;-64
2021/12/05 14:27:19;;;;;;;11.25;2.40;;;;;;;3.32;100.00;97195.59;10490546;28;20139;-62
2021/12/05 14:32:26;;;;;;;8.00;2.00;;;;;;;3.26;100.00;97198.84;10490389;28;20139;-64
2021/12/05 14:37:33;;;;;;;8.82;2.05;;;;;;;3.18;100.00;97207.56;10490945;28;20503;-61
2021/12/05 14:42:41;;;;;;;8.90;2.10;;;;;;;3.07;100.00;97211.22;10488848;28;20063;-63
2021/12/05 14:47:46;;;;;;;15.13;2.03;;;;;;;2.99;100.00;97225.25;10492081;28;20048;-63
2021/12/05 14:52:52;;;;;;;4.78;1.83;;;;;;;2.91;100.00;97239.28;10493769;28;20067;-65
2021/12/05 14:57:59;;;;;;;10.80;1.98;;;;;;;2.88;100.00;97244.88;10492381;28;20153;-67
2021/12/05 15:03:05;;;;;;;6.65;1.83;;;;;;;2.82;100.00;97256.09;10491323;28;20056;-65
2021/12/05 15:08:13;;;;;;;11.27;2.50;;;;;;;2.76;100.00;97268.09;10492775;28;20040;-65
2021/12/05 15:13:18;;;;;;;14.38;7.25;;;;;;;2.71;100.00;97274.81;10489885;28;20044;-68
2021/12/05 15:18:28;;;;;;;15.20;6.35;;;;;;;2.68;100.00;97277.78;10494171;28;20033;-66
2021/12/05 15:23:35;;;;;;;8.02;2.13;;;;;;;2.65;100.00;97288.69;10490937;28;20490;-66
2021/12/05 15:28:41;;;;;;;9.68;2.45;;;;;;;2.63;100.00;97294.16;10484993;28;20505;-63
2021/12/05 15:33:46;;;;;;;6.90;1.80;;;;;;;2.59;100.00;97290.91;10486184;28;20051;-64
2021/12/05 15:38:49;;;;;;;7.63;2.05;;;;;;;2.57;100.00;97287.56;10490009;28;20365;-66
2021/12/05 15:43:54;;;;;;;5.30;1.92;;;;;;;2.53;100.00;97293.31;10507141;28;20067;-60
2021/12/05 15:48:58;;;;;;;9.52;2.55;;;;;;;2.49;100.00;97297.22;10488734;28;20511;-62
2021/12/05 15:54:02;;;;;;;6.40;2.55;;;;;;;2.42;100.00;97302.25;10491507;28;20072;-61
2021/12/05 15:59:17;;;;;;;17.98;6.75;;;;;;;2.39;100.00;97306.03;10516437;28;20041;-67
2021/12/05 16:04:21;;;;;;;11.90;5.05;;;;;;;2.34;100.00;97313.56;10498958;28;20068;-64
2021/12/05 16:09:26;;;;;;;16.63;7.15;;;;;;;2.28;100.00;97314.13;10491848;28;20044;-65
2021/12/05 16:14:35;;;;;;;14.25;7.35;;;;;;;2.21;100.00;97315.63;10485307;28;20051;-65
2021/12/05 16:19:38;;;;;;;12.93;6.28;;;;;;;2.13;100.00;97325.13;10489352;28;20528;-65
2021/12/05 16:24:56;;;;;;;13.73;5.40;;;;;;;2.05;100.00;97322.31;10484807;28;20131;-64
2021/12/05 16:30:02;;;;;;;14.05;4.18;;;;;;;1.96;100.00;97323.94;10484833;28;20485;-60
2021/12/05 16:35:06;;;;;;;9.15;3.47;;;;;;;1.89;100.00;97332.56;10481799;27;20145;-63
2021/12/05 16:40:10;;;;;;;10.80;3.40;;;;;;;1.80;100.00;97337.72;10483095;28;20048;-63
2021/12/05 16:45:15;;;;;;;12.35;4.20;;;;;;;1.75;100.00;97337.25;10482190;28;20048;-62
2021/12/05 16:50:22;;;;;;;11.70;3.90;;;;;;;1.67;100.00;97337.09;10483820;28;20115;-63
2021/12/05 16:55:29;;;;;;;11.45;5.10;;;;;;;1.59;100.00;97337.75;10482579;28;20524;-63
2021/12/05 17:00:38;;;;;;;12.15;4.10;;;;;;;1.51;100.00;97351.66;10484135;28;20064;-63
2021/12/05 17:05:45;;;;;;;11.82;4.03;;;;;;;1.43;100.00;97359.44;10482059;28;20098;-64
2021/12/05 17:10:51;;;;;;;17.10;4.63;;;;;;;1.39;100.00;97365.97;10480388;28;20144;-61
2021/12/05 17:15:59;;;;;;;11.75;3.92;;;;;;;1.37;100.00;97376.72;10483256;28;20168;-64
2021/12/05 17:21:07;;;;;;;8.10;4.07;;;;;;;1.36;100.00;97376.84;10483256;28;20049;-62
2021/12/05 17:26:16;;;;;;;9.75;3.28;;;;;;;1.32;100.00;97378.09;10482204;28;20060;-62
2021/12/05 17:31:29;;;;;;;13.15;4.47;;;;;;;1.23;100.00;97385.00;10481846;28;20068;-61
2021/12/05 17:36:37;;;;;;;12.95;3.95;;;;;;;1.18;100.00;97387.19;10478405;28;20033;-63
2021/12/05 17:41:42;;;;;;;9.75;3.78;;;;;;;1.19;100.00;97402.13;10481754;28;20067;-61
2021/12/05 17:46:48;;;;;;;12.45;4.72;;;;;;;1.18;100.00;97396.00;10486588;28;20029;-62
2021/12/05 17:51:52;;;;;;;13.43;4.70;;;;;;;1.18;100.00;97398.66;10492470;28;20121;-65
2021/12/05 17:56:56;;;;;;;11.05;4.75;;;;;;;1.19;100.00;97405.66;10493739;28;20140;-65
2021/12/05 18:07:23;;;;;;;11.35;4.90;;;;;;;1.17;100.00;97409.41;10489994;28;20037;-65
2021/12/05 18:12:33;;;;;;;14.73;6.32;;;;;;;1.16;100.00;97419.16;10491821;28;20420;-61
2021/12/05 18:17:40;;;;;;;13.70;5.18;;;;;;;1.10;100.00;97424.13;10493149;28;20096;-65
2021/12/05 18:22:43;;;;;;;10.65;3.97;;;;;;;1.00;100.00;97434.66;10491525;28;20071;-69
2021/12/05 18:27:46;;;;;;;10.35;5.15;;;;;;;0.89;100.00;97436.34;10491824;28;20131;-65
2021/12/05 18:32:51;;;;;;;12.32;4.78;;;;;;;0.81;100.00;97452.06;10492094;28;20568;-65
2021/12/05 18:37:57;;;;;;;28.95;16.60;;;;;;;0.75;100.00;97460.50;10491272;28;20440;-62
2021/12/05 18:43:00;;;;;;;32.25;19.92;;;;;;;0.72;100.00;97460.75;10488968;28;20140;-62
2021/12/05 18:48:06;;;;;;;17.73;8.43;;;;;;;0.72;100.00;97460.75;10489900;28;20120;-66
2021/12/05 18:53:10;;;;;;;13.50;5.60;;;;;;;0.74;100.00;97475.56;10488649;28;20135;-64
2021/12/05 18:58:14;;;;;;;12.52;5.10;;;;;;;0.83;100.00;97481.94;10489459;28;20123;-63
2021/12/05 19:09:03;;;;;;;14.20;7.50;;;;;;;0.79;100.00;97490.28;10489261;28;20139;-62
2021/12/05 19:14:02;;;;;;;12.93;5.60;;;;;;;0.76;100.00;97488.72;10484120;28;20052;-63
2021/12/05 19:19:09;;;;;;;12.68;5.72;;;;;;;0.76;100.00;97494.03;10491145;28;20452;-63
2021/12/05 19:24:12;;;;;;;15.35;7.30;;;;;;;0.72;100.00;97492.56;10487682;28;20056;-61
2021/12/05 19:29:17;;;;;;;13.02;6.07;;;;;;;0.69;100.00;97506.06;10489963;28;20064;-64
2021/12/05 19:34:23;;;;;;;13.52;6.43;;;;;;;0.64;100.00;97522.31;10487399;28;20472;-65
2021/12/05 19:39:29;;;;;;;14.35;6.45;;;;;;;0.58;100.00;97528.13;10490592;28;20098;-65
2021/12/05 19:44:32;;;;;;;14.40;6.85;;;;;;;0.53;100.00;97520.50;10483191;28;20052;-63
2021/12/05 19:49:37;;;;;;;11.88;6.55;;;;;;;0.49;100.00;97526.16;10487274;28;20111;-64
2021/12/05 19:54:41;;;;;;;15.43;6.72;;;;;;;0.44;100.00;97531.84;10485753;28;20410;-64
2021/12/05 19:59:44;;;;;;;14.68;7.95;;;;;;;0.39;100.00;97529.53;10480968;28;20135;-64
2021/12/05 20:04:53;;;;;;;18.90;8.95;;;;;;;0.36;100.00;97543.03;10486116;28;20064;-65
2021/12/05 20:09:56;;;;;;;14.43;7.82;;;;;;;0.35;100.00;97545.81;10488658;28;20088;-65
2021/12/05 20:15:00;;;;;;;19.83;7.50;;;;;;;0.31;100.00;97542.56;10484867;28;20641;-65
2021/12/05 20:20:08;;;;;;;17.52;8.23;;;;;;;0.30;100.00;97546.16;10486122;28;20493;-63
2021/12/05 20:25:13;;;;;;;12.25;7.43;;;;;;;0.27;100.00;97549.91;10489237;28;20041;-65
2021/12/05 20:30:19;;;;;;;13.82;7.43;;;;;;;0.27;100.00;97557.00;10484170;28;20570;-65
2021/12/05 20:35:26;;;;;;;15.70;6.80;;;;;;;0.26;100.00;97560.59;10486041;28;20125;-65
2021/12/05 20:40:33;;;;;;;13.10;7.35;;;;;;;0.28;100.00;97561.31;10485906;28;20068;-65
2021/12/05 20:45:37;;;;;;;15.68;7.63;;;;;;;0.30;100.00;97570.84;10486615;28;20068;-64
2021/12/05 20:50:43;;;;;;;13.82;6.97;;;;;;;0.33;100.00;97576.88;10482766;28;20508;-64
2021/12/05 20:55:48;;;;;;;14.45;7.50;;;;;;;0.35;100.00;97588.19;10485820;28;20554;-65
2021/12/05 21:00:53;;;;;;;15.77;6.88;;;;;;;0.36;100.00;97584.59;10485786;27;20459;-65
2021/12/05 21:06:02;;;;;;;14.15;7.13;;;;;;;0.37;100.00;97584.47;10483207;28;20135;-65
2021/12/05 21:11:08;;;;;;;17.15;7.50;;;;;;;0.39;100.00;97587.00;10484736;28;20463;-64
2021/12/05 21:16:12;;;;;;;14.73;7.13;;;;;;;0.37;100.00;97592.41;10486707;28;20100;-64
2021/12/05 21:21:19;;;;;;;12.25;7.32;;;;;;;0.37;100.00;97586.28;10481519;28;20048;-62
2021/12/05 21:26:25;;;;;;;10.63;6.47;;;;;;;0.37;100.00;97596.88;10484553;28;20080;-63
2021/12/05 21:31:28;;;;;;;12.10;6.95;;;;;;;0.34;100.00;97605.06;10484266;28;20095;-63
2021/12/05 21:36:33;;;;;;;15.23;8.05;;;;;;;0.33;100.00;97606.00;10485299;28;20044;-64
2021/12/05 21:41:36;;;;;;;17.65;8.07;;;;;;;0.33;100.00;97608.66;10483886;28;20036;-64
2021/12/05 21:46:39;;;;;;;17.00;8.18;;;;;;;0.32;100.00;97607.81;10481723;28;20068;-64
2021/12/05 21:51:45;;;;;;;12.68;7.55;;;;;;;0.34;100.00;97611.22;10485455;28;20043;-64
2021/12/05 21:56:49;;;;;;;18.50;7.68;;;;;;;0.34;100.00;97603.25;10483684;28;20171;-64
2021/12/05 22:01:52;;;;;;;17.10;7.55;;;;;;;0.33;100.00;97614.81;10484101;28;20111;-63
2021/12/05 22:06:57;;;;;;;14.57;7.82;;;;;;;0.35;100.00;97625.28;10485928;28;20040;-64
2021/12/05 22:12:00;;;;;;;13.60;7.15;;;;;;;0.32;100.00;97622.88;10484785;28;20159;-64
2021/12/05 22:17:04;;;;;;;17.40;7.43;;;;;;;0.32;100.00;97622.88;10484488;28;20465;-64
2021/12/05 22:22:09;;;;;;;12.27;6.68;;;;;;;0.26;100.00;97622.38;10484457;28;20048;-63
2021/12/05 22:27:12;;;;;;;13.50;7.00;;;;;;;0.22;100.00;97620.91;10482117;28;20145;-64
2021/12/05 22:32:16;;;;;;;16.02;7.10;;;;;;;0.22;100.00;97628.03;10485098;28;20059;-63
2021/12/05 22:37:24;;;;;;;15.43;6.85;;;;;;;0.20;100.00;97629.94;10487353;28;20102;-65
2021/12/05 22:42:27;;;;;;;13.18;7.53;;;;;;;0.17;100.00;97627.53;10487613;28;20040;-63
2021/12/05 22:47:30;;;;;;;15.30;7.55;;;;;;;0.11;100.00;97631.47;10491282;28;20449;-64
2021/12/05 22:52:36;;;;;;;17.13;8.75;;;;;;;0.05;100.00;97635.44;10490571;28;20067;-63
2021/12/05 22:57:40;;;;;;;17.17;9.48;;;;;;;-0.01;100.00;97638.53;10489364;28;20182;-62
2021/12/05 23:02:43;;;;;;;12.60;8.05;;;;;;;-0.02;100.00;97648.28;10489148;28;20111;-64
2021/12/05 23:07:48;;;;;;;17.88;9.07;;;;;;;-0.02;100.00;97658.88;10490229;28;20068;-62
2021/12/05 23:12:51;;;;;;;13.68;8.30;;;;;;;-0.04;100.00;97652.00;10492569;28;20048;-64
2021/12/05 23:17:55;;;;;;;16.27;8.55;;;;;;;-0.02;100.00;97658.88;10490688;28;20045;-64
2021/12/05 23:22:59;;;;;;;17.15;8.77;;;;;;;-0.01;100.00;97657.91;10489221;28;20052;-63
2021/12/05 23:28:02;;;;;;;20.00;10.07;;;;;;;-0.02;100.00;97656.22;10490269;28;20052;-64
2021/12/05 23:33:10;;;;;;;18.15;10.15;;;;;;;-0.04;100.00;97666.06;10486754;28;20446;-64
2021/12/05 23:38:16;;;;;;;17.85;9.10;;;;;;;-0.04;100.00;97660.78;10486845;28;20047;-64
2021/12/05 23:43:21;;;;;;;17.08;10.15;;;;;;;-0.04;100.00;97667.91;10487847;28;20041;-63
2021/12/05 23:48:24;;;;;;;15.63;10.00;;;;;;;-0.05;100.00;97672.31;10490038;28;20045;-64
2021/12/05 23:53:30;;;;;;;17.92;9.90;;;;;;;-0.06;100.00;97665.34;10488473;28;20118;-64
2021/12/05 23:58:36;;;;;;;16.92;9.80;;;;;;;-0.06;100.00;97668.00;10488692;27;20428;-64
